Time;durP1;ratioP1;P1;durP2;ratioP2;P2;SDS_P1;SDS_P2;PMS_P1;PMS_P2;Temp;Humidity;BMP_temperature;BMP_pressure;BME280_temperature;BME280_humidity;BME280_pressure;Samples;Min_cycle;Max_cycle;Signal;HPM_P1;HPM_P2
2023/11/05 00:01:50;;;;;;;27.98;25.67;;;;;;;10.53;100.00;99957.31;5071978;28;20106;-74
2023/11/05 00:04:18;;;;;;;28.27;26.08;;;;;;;10.82;100.00;99962.84;5066596;28;20059;-75
2023/11/05 00:06:51;;;;;;;27.70;25.40;;;;;;;10.81;100.00;99969.22;5068480;28;20437;-76
2023/11/05 00:09:34;;;;;;;26.95;24.75;;;;;;;11.15;100.00;99957.84;5071214;28;20127;-73
2023/11/05 00:12:03;;;;;;;28.52;26.23;;;;;;;11.18;100.00;99959.25;5071809;28;20068;-74
2023/11/05 00:14:30;;;;;;;30.77;28.48;;;;;;;10.86;100.00;99967.50;5066645;28;20493;-74
2023/11/05 00:16:57;;;;;;;28.77;26.58;;;;;;;11.02;100.00;99957.25;5066000;28;20049;-76
2023/11/05 00:19:23;;;;;;;30.65;28.15;;;;;;;10.94;100.00;99971.66;5060177;28;20426;-76
2023/11/05 00:21:50;;;;;;;29.30;26.90;;;;;;;11.14;100.00;99974.03;5065636;28;20044;-75
2023/11/05 00:24:18;;;;;;;31.92;29.42;;;;;;;11.05;100.00;99978.06;5066206;28;20048;-75
2023/11/05 00:26:44;;;;;;;29.17;26.77;;;;;;;11.06;100.00;99980.47;5064021;28;20502;-75
2023/11/05 00:29:14;;;;;;;31.70;29.20;;;;;;;11.17;100.00;99974.41;5050199;28;20878;-73
2023/11/05 00:31:41;;;;;;;29.52;27.23;;;;;;;11.07;100.00;99982.09;5063292;28;20056;-75
2023/11/05 00:34:08;;;;;;;29.30;26.90;;;;;;;11.03;100.00;99988.09;5059475;28;20517;-75
2023/11/05 00:36:35;;;;;;;32.38;29.88;;;;;;;10.85;100.00;99992.44;5065248;28;20068;-73
2023/11/05 00:39:02;;;;;;;28.13;25.88;;;;;;;10.94;100.00;99999.03;5062694;28;20044;-73
2023/11/05 00:41:29;;;;;;;29.17;26.88;;;;;;;10.77;100.00;99992.72;5068328;28;20047;-75
2023/11/05 00:43:56;;;;;;;27.50;25.30;;;;;;;10.81;100.00;99996.56;5051566;28;20041;-74
2023/11/05 00:46:24;;;;;;;32.13;29.67;;;;;;;10.85;100.00;100000.41;5067594;28;20057;-76
2023/11/05 00:48:52;;;;;;;32.15;29.70;;;;;;;10.84;100.00;99992.66;5058054;28;20143;-75
2023/11/05 00:51:21;;;;;;;27.20;25.00;;;;;;;10.87;100.00;99986.91;5071029;28;20139;-75
2023/11/05 00:53:55;;;;;;;27.92;25.73;;;;;;;10.88;100.00;99994.63;5065106;28;20045;-74
2023/11/05 00:56:22;;;;;;;28.90;26.50;;;;;;;10.82;100.00;99995.53;5055106;28;20056;-75
2023/11/05 00:58:50;;;;;;;33.90;31.40;;;;;;;10.71;100.00;99997.13;5057358;28;20052;-74
2023/11/05 01:01:17;;;;;;;34.90;32.15;;;;;;;10.72;100.00;99998.72;5070242;28;20595;-75
2023/11/05 01:03:47;;;;;;;28.45;26.25;;;;;;;10.79;100.00;99998.63;5066480;28;20036;-73
2023/11/05 01:06:14;;;;;;;28.25;25.95;;;;;;;10.94;100.00;99995.56;5068028;28;20057;-74
2023/11/05 01:08:41;;;;;;;29.67;27.38;;;;;;;10.87;100.00;99994.88;5059082;28;20513;-74
2023/11/05 01:11:07;;;;;;;30.80;28.40;;;;;;;10.63;100.00;99997.41;5058760;28;20377;-76
2023/11/05 01:13:33;;;;;;;36.97;34.33;;;;;;;10.55;100.00;100001.16;5065966;28;20052;-73
2023/11/05 01:16:00;;;;;;;34.30;31.70;;;;;;;10.77;100.00;100003.34;5057015;28;20785;-75
2023/11/05 01:18:27;;;;;;;36.03;33.47;;;;;;;10.68;100.00;99997.56;5065273;28;20063;-75
2023/11/05 01:20:57;;;;;;;28.90;26.63;;;;;;;10.37;100.00;100005.69;5058822;28;20425;-75
2023/11/05 01:23:31;;;;;;;29.88;27.50;;;;;;;10.15;100.00;100006.09;5057551;28;20106;-74
2023/11/05 01:25:58;;;;;;;26.23;24.23;;;;;;;10.48;100.00;100005.75;5065203;28;20433;-74
2023/11/05 01:28:38;;;;;;;28.60;26.40;;;;;;;10.39;100.00;100006.28;5059842;28;20048;-75
2023/11/05 01:31:05;;;;;;;27.90;25.70;;;;;;;10.24;100.00;100010.09;5066733;28;20096;-73
2023/11/05 01:33:32;;;;;;;30.85;28.35;;;;;;;10.32;100.00;100023.09;5049900;28;20052;-76
2023/11/05 01:36:03;;;;;;;32.40;29.90;;;;;;;10.28;100.00;100023.75;5051594;28;20717;-75
2023/11/05 01:38:30;;;;;;;29.20;26.90;;;;;;;9.94;100.00;100025.91;5065784;28;20056;-73
2023/11/05 01:40:57;;;;;;;28.08;25.77;;;;;;;9.72;100.00;100030.78;5074127;28;20047;-76
2023/11/05 01:43:23;;;;;;;31.98;29.48;;;;;;;9.70;100.00;100039.97;5058000;28;20072;-75
2023/11/05 01:45:52;;;;;;;27.63;25.33;;;;;;;9.36;100.00;100036.75;5072641;28;20052;-74
2023/11/05 01:48:20;;;;;;;28.48;26.17;;;;;;;9.34;100.00;100038.81;5053030;28;20048;-74
2023/11/05 01:50:48;;;;;;;27.15;24.95;;;;;;;9.31;100.00;100037.38;5059554;28;20059;-75
2023/11/05 01:53:17;;;;;;;27.05;24.88;;;;;;;9.21;100.00;100041.56;5061072;28;20063;-75
2023/11/05 01:55:44;;;;;;;32.97;30.42;;;;;;;8.76;100.00;100046.88;5072850;28;20048;-74
2023/11/05 01:58:19;;;;;;;31.42;28.92;;;;;;;9.01;100.00;100058.34;5062751;28;20057;-75
2023/11/05 02:00:47;;;;;;;29.30;26.90;;;;;;;8.84;100.00;100052.75;5068286;28;20063;-74
2023/11/05 02:03:14;;;;;;;33.05;30.35;;;;;;;9.00;100.00;100058.56;5053720;28;20052;-74
2023/11/05 02:05:46;;;;;;;25.75;23.55;;;;;;;9.01;100.00;100049.59;5070310;28;20044;-74
2023/11/05 02:08:13;;;;;;;25.60;23.50;;;;;;;8.93;100.00;100050.66;5064508;28;20091;-75
2023/11/05 02:10:42;;;;;;;26.83;24.63;;;;;;;8.85;100.00;100054.34;5060118;28;20060;-74
2023/11/05 02:13:09;;;;;;;24.75;22.75;;;;;;;8.83;100.00;100047.63;5070233;28;20052;-74
2023/11/05 02:15:35;;;;;;;23.10;21.20;;;;;;;8.87;100.00;100048.88;5061008;28;20044;-74
2023/11/05 02:18:04;;;;;;;27.70;25.48;;;;;;;8.69;100.00;100042.41;5060932;28;20051;-75
2023/11/05 02:20:31;;;;;;;28.38;25.98;;;;;;;8.56;100.00;100041.63;5064747;28;20061;-75
2023/11/05 02:23:01;;;;;;;29.65;27.35;;;;;;;9.39;100.00;100045.09;5071685;28;20074;-76
2023/11/05 02:25:29;;;;;;;31.00;28.60;;;;;;;9.71;100.00;100046.91;5063288;28;20049;-74
2023/11/05 02:27:56;;;;;;;26.90;24.80;;;;;;;9.29;100.00;100049.22;5068090;28;20480;-75
2023/11/05 02:30:23;;;;;;;27.70;25.40;;;;;;;9.03;100.00;100047.56;5068921;28;20053;-77
2023/11/05 02:32:50;;;;;;;29.15;26.85;;;;;;;8.91;100.00;100060.66;5063696;28;20755;-75
2023/11/05 02:35:18;;;;;;;27.95;25.65;;;;;;;8.86;100.00;100058.63;5051915;28;20055;-77
2023/11/05 02:37:45;;;;;;;31.17;28.67;;;;;;;8.78;100.00;100064.16;5066162;28;20056;-75
2023/11/05 02:40:12;;;;;;;29.23;26.92;;;;;;;8.81;100.00;100061.09;5065914;28;20084;-75
2023/11/05 02:42:41;;;;;;;27.40;25.20;;;;;;;8.62;100.00;100061.97;5058842;28;20055;-76
2023/11/05 02:45:09;;;;;;;27.55;25.25;;;;;;;8.33;100.00;100063.25;5070194;28;20079;-76
2023/11/05 02:47:36;;;;;;;29.90;27.50;;;;;;;8.18;100.00;100066.94;5069786;28;20115;-75
2023/11/05 02:50:04;;;;;;;29.35;27.05;;;;;;;8.40;100.00;100064.09;5065763;28;20040;-75
2023/11/05 02:52:30;;;;;;;25.75;23.75;;;;;;;8.34;100.00;100063.03;5065631;28;20045;-77
2023/11/05 02:55:00;;;;;;;25.35;23.35;;;;;;;8.34;100.00;100070.16;5060658;28;20080;-75
2023/11/05 02:57:28;;;;;;;27.90;25.60;;;;;;;8.10;100.00;100077.72;5072137;28;20061;-75
2023/11/05 02:59:56;;;;;;;25.35;23.25;;;;;;;8.10;100.00;100079.56;5065791;28;20047;-75
2023/11/05 03:02:23;;;;;;;25.27;23.27;;;;;;;8.14;100.00;100072.84;5070568;28;20063;-76
2023/11/05 03:04:50;;;;;;;28.08;25.88;;;;;;;8.26;100.00;100060.63;5067793;28;20041;-75
2023/11/05 03:07:17;;;;;;;28.75;26.45;;;;;;;8.30;100.00;100064.47;5061704;28;20140;-75
2023/11/05 03:09:45;;;;;;;28.83;26.52;;;;;;;8.16;100.00;100062.88;5066941;28;20037;-76
2023/11/05 03:12:12;;;;;;;25.60;23.50;;;;;;;7.94;100.00;100068.38;5070009;28;20052;-75
2023/11/05 03:14:39;;;;;;;26.45;24.25;;;;;;;8.21;100.00;100069.19;5071028;28;20121;-76
2023/11/05 03:17:08;;;;;;;25.88;23.67;;;;;;;8.37;100.00;100064.47;5067535;28;20480;-75
2023/11/05 03:19:34;;;;;;;31.20;28.63;;;;;;;8.21;100.00;100060.44;5069254;28;20052;-76
2023/11/05 03:22:01;;;;;;;26.38;24.05;;;;;;;8.33;100.00;100064.06;5067952;28;20045;-75
2023/11/05 03:24:28;;;;;;;24.65;22.55;;;;;;;8.37;100.00;100052.03;5068254;28;20079;-75
2023/11/05 03:26:55;;;;;;;29.48;27.27;;;;;;;8.10;100.00;100056.56;5071518;28;20429;-75
2023/11/05 03:29:22;;;;;;;29.00;26.77;;;;;;;7.82;100.00;100066.56;5060800;28;20059;-76
2023/11/05 03:31:50;;;;;;;25.63;23.63;;;;;;;7.96;100.00;100066.38;5060033;28;20045;-75
2023/11/05 03:34:19;;;;;;;26.02;23.92;;;;;;;8.27;100.00;100060.41;5055422;28;20051;-76
2023/11/05 03:36:46;;;;;;;28.80;26.55;;;;;;;8.18;100.00;100055.56;5056209;28;20053;-75
2023/11/05 03:39:13;;;;;;;24.83;22.83;;;;;;;7.97;100.00;100067.97;5074460;28;20040;-75
2023/11/05 03:41:40;;;;;;;25.42;23.35;;;;;;;8.00;100.00;100061.47;5061083;28;20049;-76
2023/11/05 03:44:07;;;;;;;23.52;21.63;;;;;;;8.24;100.00;100050.25;5059007;28;20055;-75
2023/11/05 03:46:33;;;;;;;24.27;22.27;;;;;;;7.98;100.00;100047.63;5069109;28;20063;-75
2023/11/05 03:49:00;;;;;;;25.17;23.17;;;;;;;7.88;100.00;100052.53;5067611;28;20051;-75
2023/11/05 03:51:29;;;;;;;24.35;22.40;;;;;;;8.00;100.00;100053.53;5066503;28;20499;-74
2023/11/05 03:53:56;;;;;;;24.77;22.77;;;;;;;7.89;100.00;100038.28;5062579;28;20040;-75
2023/11/05 03:56:23;;;;;;;27.42;25.23;;;;;;;7.68;100.00;100040.09;5070991;28;20821;-75
2023/11/05 03:58:52;;;;;;;20.83;19.23;;;;;;;8.00;100.00;100032.38;5067117;28;20072;-76
2023/11/05 04:01:21;;;;;;;22.30;20.50;;;;;;;7.50;100.00;100046.03;5063740;28;20044;-75
2023/11/05 04:03:48;;;;;;;23.75;21.85;;;;;;;7.59;100.00;100059.81;5062004;28;20052;-76
2023/11/05 04:06:17;;;;;;;26.90;24.73;;;;;;;7.37;100.00;100055.75;5064805;28;20048;-76
2023/11/05 04:08:46;;;;;;;23.92;22.02;;;;;;;7.63;100.00;100058.44;5066590;28;20044;-75
2023/11/05 04:11:13;;;;;;;23.10;21.30;;;;;;;7.45;100.00;100061.66;5059462;28;20049;-75
2023/11/05 04:13:44;;;;;;;24.90;23.00;;;;;;;7.29;100.00;100062.03;5071506;28;20040;-75
2023/11/05 04:16:12;;;;;;;26.48;24.38;;;;;;;7.02;100.00;100067.25;5069503;28;20422;-75
2023/11/05 04:18:41;;;;;;;26.63;24.48;;;;;;;7.06;100.00;100070.31;5058404;28;20052;-75
2023/11/05 04:21:08;;;;;;;26.02;23.92;;;;;;;6.96;100.00;100075.13;5064992;28;20056;-75
2023/11/05 04:23:35;;;;;;;25.15;23.15;;;;;;;7.09;100.00;100078.66;5066730;28;20036;-75
2023/11/05 04:26:05;;;;;;;24.17;22.38;;;;;;;7.26;100.00;100075.63;5068583;28;20041;-75
2023/11/05 04:28:32;;;;;;;29.75;27.45;;;;;;;7.25;100.00;100077.47;5061480;28;20060;-75
2023/11/05 04:31:12;;;;;;;27.48;25.45;;;;;;;7.29;100.00;100080.50;5064075;28;20052;-75
2023/11/05 04:33:39;;;;;;;25.10;23.10;;;;;;;6.97;100.00;100080.22;5067748;28;20060;-75
2023/11/05 04:36:06;;;;;;;25.60;23.60;;;;;;;7.07;100.00;100093.06;5061142;28;20085;-76
2023/11/05 04:38:33;;;;;;;28.02;25.83;;;;;;;7.03;100.00;100099.75;5058787;28;20076;-76
2023/11/05 04:41:04;;;;;;;26.60;24.60;;;;;;;7.01;100.00;100107.84;5061171;28;20470;-75
2023/11/05 04:43:31;;;;;;;23.13;21.33;;;;;;;7.04;100.00;100107.47;5057049;28;20048;-76
2023/11/05 04:45:59;;;;;;;27.55;25.45;;;;;;;7.01;100.00;100101.75;5064211;28;20068;-75
2023/11/05 04:48:26;;;;;;;30.27;28.13;;;;;;;6.98;100.00;100099.53;5062648;28;20058;-75
2023/11/05 04:50:53;;;;;;;26.98;24.77;;;;;;;6.51;100.00;100106.41;5063243;28;20606;-75
2023/11/05 04:53:22;;;;;;;23.63;21.75;;;;;;;6.90;100.00;100095.25;5064968;28;20053;-75
2023/11/05 04:55:53;;;;;;;22.45;20.73;;;;;;;6.93;100.00;100094.00;5064921;28;20086;-74
2023/11/05 04:58:21;;;;;;;21.58;19.98;;;;;;;6.97;100.00;100096.06;5064325;28;20044;-75
2023/11/05 05:00:48;;;;;;;20.55;18.95;;;;;;;7.06;100.00;100099.34;5053802;28;20528;-74
2023/11/05 05:03:16;;;;;;;19.42;18.02;;;;;;;7.32;100.00;100088.88;5061799;28;20053;-75
2023/11/05 05:05:43;;;;;;;20.88;19.35;;;;;;;7.34;100.00;100091.31;5058265;28;20048;-75
2023/11/05 05:08:11;;;;;;;20.35;18.83;;;;;;;7.43;100.00;100084.81;5056678;28;20076;-75
2023/11/05 05:10:37;;;;;;;20.45;18.95;;;;;;;7.08;100.00;100076.19;5066176;28;20052;-75
2023/11/05 05:13:09;;;;;;;20.15;18.70;;;;;;;7.24;100.00;100075.03;5064949;28;20511;-74
2023/11/05 05:15:43;;;;;;;19.80;18.30;;;;;;;7.11;100.00;100084.56;5054375;28;20057;-75
2023/11/05 05:18:09;;;;;;;21.00;19.50;;;;;;;7.60;100.00;100090.53;5060461;28;20045;-74
2023/11/05 05:20:37;;;;;;;21.05;19.45;;;;;;;7.91;100.00;100087.31;5060682;28;20051;-74
2023/11/05 05:23:07;;;;;;;19.85;18.35;;;;;;;7.72;100.00;100085.47;5075294;28;20052;-74
2023/11/05 05:25:34;;;;;;;19.88;18.38;;;;;;;7.57;100.00;100085.66;5069532;28;20049;-74
2023/11/05 05:28:01;;;;;;;21.98;20.20;;;;;;;7.61;100.00;100084.25;5066004;28;20598;-73
2023/11/05 05:30:28;;;;;;;21.45;19.85;;;;;;;7.56;100.00;100084.84;5058489;28;20053;-76
2023/11/05 05:32:57;;;;;;;20.70;19.17;;;;;;;7.70;100.00;100096.25;5058225;28;20059;-74
2023/11/05 05:35:24;;;;;;;22.05;20.45;;;;;;;7.81;100.00;100086.91;5055737;28;20135;-74
2023/11/05 05:37:51;;;;;;;23.50;21.52;;;;;;;7.62;100.00;100087.69;5057159;28;20045;-75
2023/11/05 05:40:18;;;;;;;21.42;19.92;;;;;;;8.10;100.00;100095.44;5063020;28;20066;-73
2023/11/05 05:42:45;;;;;;;21.00;19.50;;;;;;;8.18;100.00;100103.16;5069481;28;20047;-75
2023/11/05 05:45:12;;;;;;;22.52;20.92;;;;;;;8.51;100.00;100099.69;5062007;28;20533;-74
2023/11/05 05:47:42;;;;;;;23.70;22.00;;;;;;;9.15;100.00;100099.66;5067495;28;20098;-74
2023/11/05 05:50:11;;;;;;;25.70;23.70;;;;;;;9.43;100.00;100097.69;5071377;28;20533;-74
2023/11/05 05:52:38;;;;;;;23.15;21.40;;;;;;;9.64;100.00;100108.75;5053845;28;20048;-75
2023/11/05 05:55:09;;;;;;;29.65;26.80;;;;;;;9.71;100.00;100111.34;5068195;28;20052;-75
2023/11/05 05:57:36;;;;;;;29.90;27.00;;;;;;;10.36;100.00;100107.59;5068108;28;20452;-76
2023/11/05 06:00:04;;;;;;;29.15;26.85;;;;;;;10.58;100.00;100100.81;5068779;28;20411;-75
2023/11/05 06:02:31;;;;;;;33.22;30.73;;;;;;;11.21;100.00;100099.69;5065933;28;20056;-75
2023/11/05 06:04:58;;;;;;;31.70;29.20;;;;;;;11.46;100.00;100096.88;5065750;28;20040;-77
2023/11/05 06:07:32;;;;;;;28.90;26.80;;;;;;;11.77;100.00;100094.97;5067905;28;20059;-75
2023/11/05 06:09:59;;;;;;;29.73;27.30;;;;;;;12.33;100.00;100096.34;5066596;28;20047;-74
2023/11/05 06:12:34;;;;;;;29.88;27.58;;;;;;;12.35;100.00;100089.75;5067717;28;20053;-73
2023/11/05 06:15:02;;;;;;;31.40;28.90;;;;;;;12.63;100.00;100082.06;5064342;28;20048;-74
2023/11/05 06:17:29;;;;;;;35.70;33.00;;;;;;;12.87;100.00;100078.28;5056571;28;20048;-74
2023/11/05 06:19:56;;;;;;;32.55;30.00;;;;;;;13.01;100.00;100063.66;5067308;28;20044;-74
2023/11/05 06:22:24;;;;;;;32.63;30.13;;;;;;;13.17;100.00;100062.06;5069062;28;20056;-76
2023/11/05 06:24:52;;;;;;;32.83;30.13;;;;;;;13.34;100.00;100056.00;5060471;28;20052;-75
2023/11/05 06:27:19;;;;;;;30.58;28.17;;;;;;;13.52;100.00;100059.28;5064335;28;20502;-75
2023/11/05 06:29:46;;;;;;;28.17;25.77;;;;;;;13.98;100.00;100062.66;5060167;28;20402;-74
2023/11/05 06:32:13;;;;;;;29.65;27.25;;;;;;;14.44;100.00;100057.16;5064005;28;20059;-74
2023/11/05 06:34:40;;;;;;;30.08;27.58;;;;;;;14.14;100.00;100053.00;5060476;28;20050;-74
2023/11/05 06:37:07;;;;;;;29.83;27.42;;;;;;;14.51;100.00;100054.31;5069071;28;20056;-74
2023/11/05 06:39:34;;;;;;;32.38;29.75;;;;;;;14.36;100.00;100054.91;5067953;28;20059;-74
2023/11/05 06:42:02;;;;;;;31.70;29.20;;;;;;;14.54;100.00;100043.97;5067080;28;20049;-74
2023/11/05 06:44:30;;;;;;;32.25;29.75;;;;;;;14.60;100.00;100037.63;5062952;28;20053;-74
2023/11/05 06:46:57;;;;;;;29.08;26.77;;;;;;;14.94;100.00;100031.31;5063616;28;20052;-75
2023/11/05 06:49:26;;;;;;;30.73;28.23;;;;;;;16.08;100.00;100024.00;5061735;28;20062;-74
2023/11/05 06:51:52;;;;;;;30.77;28.38;;;;;;;15.34;100.00;100025.59;5066159;28;20143;-75
2023/11/05 06:54:19;;;;;;;30.63;28.13;;;;;;;15.22;100.00;100032.94;5069643;28;20523;-74
2023/11/05 06:56:52;;;;;;;31.27;28.67;;;;;;;16.19;100.00;100026.50;5069912;28;20051;-76
2023/11/05 06:59:23;;;;;;;34.35;31.70;;;;;;;16.57;100.00;100015.66;5069114;28;20051;-73
2023/11/05 07:01:50;;;;;;;32.38;30.08;;;;;;;16.23;100.00;100034.81;5063811;28;20057;-73
2023/11/05 07:04:18;;;;;;;32.95;30.23;;;;;;;16.22;100.00;100020.63;5064801;28;20524;-74
2023/11/05 07:06:45;;;;;;;30.00;27.80;;;;;;;16.73;100.00;100020.00;5066284;28;20509;-74
2023/11/05 07:09:12;;;;;;;28.35;26.25;;;;;;;16.87;100.00;100023.84;5065085;28;20041;-76
2023/11/05 07:11:40;;;;;;;29.13;27.02;;;;;;;17.21;100.00;100023.38;5064427;28;20055;-75
2023/11/05 07:14:07;;;;;;;25.88;23.98;;;;;;;17.23;100.00;100020.44;5068505;28;20045;-76
2023/11/05 07:16:35;;;;;;;24.45;22.65;;;;;;;17.84;100.00;100025.81;5062519;28;20047;-75
2023/11/05 07:19:02;;;;;;;21.75;20.15;;;;;;;17.48;100.00;100023.13;5068124;28;20062;-75
2023/11/05 07:21:29;;;;;;;22.33;20.73;;;;;;;17.77;100.00;100023.41;5066566;28;21437;-75
2023/11/05 07:23:57;;;;;;;23.27;21.58;;;;;;;17.81;100.00;100023.69;5068559;28;20091;-75
2023/11/05 07:26:24;;;;;;;22.45;20.75;;;;;;;17.72;100.00;100004.59;5066652;28;20117;-75
2023/11/05 07:28:51;;;;;;;23.58;21.88;;;;;;;18.28;100.00;99998.31;5069372;28;20052;-74
2023/11/05 07:31:21;;;;;;;24.20;22.48;;;;;;;18.41;100.00;99986.97;5069343;28;20049;-74
2023/11/05 07:33:50;;;;;;;24.25;22.55;;;;;;;18.60;100.00;99991.72;5069107;28;20048;-75
2023/11/05 07:36:20;;;;;;;23.38;21.67;;;;;;;18.35;100.00;99993.44;5061680;28;20060;-75
2023/11/05 07:38:53;;;;;;;22.60;20.90;;;;;;;18.97;100.00;99989.41;5067180;28;20067;-75
2023/11/05 07:41:21;;;;;;;23.60;21.90;;;;;;;18.97;100.00;99989.41;5070044;28;20432;-75
2023/11/05 07:43:48;;;;;;;23.27;21.48;;;;;;;19.72;100.00;99993.66;5065332;28;20110;-75
2023/11/05 07:46:15;;;;;;;23.92;22.13;;;;;;;19.99;100.00;100005.81;5064236;28;20145;-75
2023/11/05 07:48:42;;;;;;;23.58;21.77;;;;;;;19.91;100.00;99991.09;5066812;28;20075;-75
2023/11/05 07:51:22;;;;;;;23.45;21.75;;;;;;;20.40;100.00;100003.47;5062884;28;20788;-75
2023/11/05 07:53:51;;;;;;;23.90;22.10;;;;;;;20.39;100.00;99999.16;5060834;28;20114;-75
2023/11/05 07:56:17;;;;;;;23.25;21.55;;;;;;;20.67;100.00;99996.69;5064301;28;21145;-75
2023/11/05 07:58:44;;;;;;;23.35;21.55;;;;;;;20.64;100.00;99989.19;5062879;28;20679;-74
2023/11/05 08:01:13;;;;;;;24.63;22.80;;;;;;;20.56;100.00;99985.22;5058969;28;20509;-75
2023/11/05 08:03:41;;;;;;;24.13;22.33;;;;;;;20.86;100.00;99994.78;5056794;28;20053;-73
2023/11/05 08:06:08;;;;;;;23.75;21.95;;;;;;;21.12;100.00;99987.13;5069615;28;20048;-74
2023/11/05 08:08:36;;;;;;;24.27;22.48;;;;;;;21.48;100.00;99987.38;5068759;28;20052;-73
2023/11/05 08:11:14;;;;;;;24.83;23.02;;;;;;;21.54;100.00;99976.47;5065654;28;20102;-74
2023/11/05 08:13:42;;;;;;;22.08;20.38;;;;;;;21.49;100.00;99974.69;5060736;28;20494;-74
2023/11/05 08:16:11;;;;;;;25.80;23.80;;;;;;;22.57;100.00;99970.72;5064505;28;20075;-76
2023/11/05 08:18:38;;;;;;;24.15;22.33;;;;;;;22.47;100.00;99977.16;5061230;28;20045;-75
2023/11/05 08:21:10;;;;;;;24.45;22.55;;;;;;;22.70;100.00;99974.53;5074827;28;20045;-75
2023/11/05 08:23:38;;;;;;;23.63;21.92;;;;;;;22.33;100.00;99962.84;5062220;28;20045;-74
2023/11/05 08:26:06;;;;;;;23.55;21.75;;;;;;;22.53;100.00;99950.78;5054866;28;20415;-74
2023/11/05 08:28:33;;;;;;;23.98;22.08;;;;;;;22.66;100.00;99947.25;5069157;28;20762;-75
2023/11/05 08:30:59;;;;;;;21.85;20.15;;;;;;;22.57;100.00;99944.47;5055086;28;20048;-77
2023/11/05 08:33:26;;;;;;;23.67;21.80;;;;;;;23.46;100.00;99936.69;5057807;28;20055;-77
2023/11/05 08:36:06;;;;;;;23.85;22.15;;;;;;;23.59;100.00;99937.72;5062869;28;20517;-77
2023/11/05 08:38:40;;;;;;;23.60;21.80;;;;;;;23.30;100.00;99920.84;5059464;28;20048;-76
2023/11/05 08:41:08;;;;;;;23.27;21.55;;;;;;;23.13;100.00;99918.03;5064503;28;20076;-76
2023/11/05 08:43:35;;;;;;;23.42;21.67;;;;;;;23.54;100.00;99908.81;5063593;28;20127;-75
2023/11/05 08:46:02;;;;;;;23.23;21.52;;;;;;;23.65;100.00;99898.53;5054601;28;20049;-75
2023/11/05 08:48:29;;;;;;;23.27;21.58;;;;;;;23.48;100.00;99891.94;5063710;28;20048;-76
2023/11/05 08:50:57;;;;;;;23.10;21.40;;;;;;;23.32;100.00;99879.88;5064715;28;20052;-77
2023/11/05 08:53:24;;;;;;;22.58;20.77;;;;;;;23.73;100.00;99885.03;5056238;28;20080;-76
2023/11/05 08:55:52;;;;;;;22.75;21.05;;;;;;;23.44;100.00;99874.69;5072250;28;20049;-75
2023/11/05 08:58:19;;;;;;;23.58;21.77;;;;;;;23.97;96.25;99873.78;5062745;28;20138;-77
2023/11/05 09:00:46;;;;;;;23.38;21.58;;;;;;;23.82;92.94;99857.16;5069352;28;20055;-77
2023/11/05 09:03:14;;;;;;;34.70;23.55;;;;;;;23.67;100.00;99853.72;5063765;28;20489;-76
2023/11/05 09:05:40;;;;;;;24.02;22.17;;;;;;;23.96;93.70;99849.69;5068063;28;20048;-76
2023/11/05 09:08:11;;;;;;;24.00;22.10;;;;;;;23.80;85.79;99848.53;5059328;28;20054;-76
2023/11/05 09:10:38;;;;;;;23.55;21.75;;;;;;;23.80;90.65;99853.97;5056056;28;20059;-76
2023/11/05 09:13:06;;;;;;;24.92;23.02;;;;;;;24.51;89.61;99838.28;5057761;28;20060;-76
2023/11/05 09:15:40;;;;;;;23.90;22.00;;;;;;;24.50;81.29;99819.59;5059173;28;20044;-77
2023/11/05 09:18:07;;;;;;;23.50;21.70;;;;;;;23.68;76.30;99811.94;5066611;28;20457;-77
2023/11/05 09:20:34;;;;;;;25.60;23.67;;;;;;;23.42;73.36;99795.63;5059715;28;20048;-77
2023/11/05 09:23:01;;;;;;;24.73;22.70;;;;;;;24.07;76.20;99783.19;5058524;28;20052;-76
2023/11/05 09:25:28;;;;;;;24.27;22.27;;;;;;;24.13;74.35;99776.47;5068246;28;20126;-76
2023/11/05 09:27:56;;;;;;;24.63;22.63;;;;;;;24.57;71.63;99769.13;5063948;28;20115;-76
2023/11/05 09:30:24;;;;;;;24.30;22.35;;;;;;;24.09;71.93;99774.72;5066117;28;20500;-76
2023/11/05 09:32:51;;;;;;;24.95;22.95;;;;;;;24.45;65.54;99766.28;5068774;28;20051;-76
2023/11/05 09:35:33;;;;;;;26.30;24.30;;;;;;;24.19;61.21;99753.50;5070037;28;20059;-77
2023/11/05 09:38:02;;;;;;;27.20;25.10;;;;;;;23.81;61.73;99753.31;5067414;28;20507;-76
2023/11/05 09:40:31;;;;;;;25.35;23.35;;;;;;;24.34;60.13;99741.34;5062709;28;20076;-76
2023/11/05 09:43:01;;;;;;;26.67;24.60;;;;;;;24.27;64.84;99732.91;5062479;28;20098;-76
2023/11/05 09:45:33;;;;;;;25.40;23.40;;;;;;;24.42;61.76;99729.72;5058561;28;20045;-76
2023/11/05 09:48:02;;;;;;;23.98;22.08;;;;;;;24.98;64.01;99720.78;5068175;28;20079;-76
2023/11/05 09:50:29;;;;;;;26.23;24.23;;;;;;;24.61;63.22;99710.34;5062655;28;20048;-75
2023/11/05 09:53:08;;;;;;;25.92;23.92;;;;;;;24.54;58.41;99701.09;5054516;28;20136;-77
2023/11/05 09:55:35;;;;;;;26.25;24.25;;;;;;;25.17;53.37;99712.25;5059090;28;20045;-74
2023/11/05 09:58:03;;;;;;;25.35;23.35;;;;;;;24.57;57.84;99706.72;5065665;28;20045;-75
2023/11/05 10:00:31;;;;;;;25.25;23.25;;;;;;;24.88;51.31;99708.34;5068859;28;20055;-75
2023/11/05 10:03:00;;;;;;;23.33;21.42;;;;;;;25.16;51.08;99686.19;5068534;28;20484;-74
2023/11/05 10:05:32;;;;;;;22.30;20.40;;;;;;;25.85;48.05;99682.25;5061403;28;20060;-74
2023/11/05 10:08:00;;;;;;;24.95;22.95;;;;;;;25.26;46.38;99678.44;5069691;28;20126;-76
2023/11/05 10:10:27;;;;;;;22.88;21.08;;;;;;;26.08;48.53;99679.94;5057020;28;20544;-75
2023/11/05 10:13:10;;;;;;;22.65;20.75;;;;;;;26.41;49.29;99686.16;5064448;28;20105;-74
2023/11/05 10:15:41;;;;;;;22.25;20.35;;;;;;;25.92;46.53;99674.31;5062075;28;20059;-76
2023/11/05 10:18:13;;;;;;;24.70;22.80;;;;;;;25.18;48.77;99667.66;5076458;28;20052;-74
2023/11/05 10:20:48;;;;;;;;;;;;;;;25.18;49.85;99656.78;5069784;28;20052;-73
2023/11/05 10:23:23;;;;;;;24.98;23.00;;;;;;;25.68;48.54;99651.28;5062987;28;20692;-74
2023/11/05 10:25:51;;;;;;;24.10;22.20;;;;;;;26.63;46.32;99648.81;5067736;28;20060;-73
2023/11/05 10:28:20;;;;;;;23.30;21.50;;;;;;;26.76;44.73;99655.84;5060645;28;20052;-73
2023/11/05 10:30:51;;;;;;;22.80;21.00;;;;;;;26.40;43.25;99651.91;5054748;28;20049;-74
2023/11/05 10:33:18;;;;;;;24.25;22.25;;;;;;;26.06;41.26;99646.84;5057246;28;20441;-75
2023/11/05 10:35:49;;;;;;;26.85;24.33;;;;;;;24.97;46.04;99638.50;5055597;28;20150;-74
2023/11/05 10:38:18;;;;;;;24.75;22.75;;;;;;;25.59;43.75;99634.25;5058900;28;20055;-73
2023/11/05 10:40:45;;;;;;;23.60;21.80;;;;;;;26.01;44.51;99631.53;5059426;28;20133;-74
2023/11/05 10:43:11;;;;;;;25.42;21.77;;;;;;;26.15;44.97;99634.75;5071052;28;20533;-74
2023/11/05 10:45:39;;;;;;;23.77;21.88;;;;;;;27.22;44.78;99623.03;5065309;28;20084;-74
2023/11/05 10:48:09;;;;;;;23.17;21.38;;;;;;;26.61;49.61;99627.34;5069293;28;20053;-73
2023/11/05 10:50:38;;;;;;;25.17;23.27;;;;;;;25.30;56.61;99627.78;5065351;28;20078;-73
2023/11/05 10:53:09;;;;;;;23.27;21.48;;;;;;;26.50;50.56;99626.19;5062993;28;20059;-76
2023/11/05 10:55:37;;;;;;;24.15;22.25;;;;;;;27.11;47.05;99625.38;5077760;28;20441;-76
2023/11/05 10:58:07;;;;;;;25.77;23.77;;;;;;;27.35;44.89;99614.50;5072208;28;20059;-75
2023/11/05 11:00:50;;;;;;;27.88;25.88;;;;;;;28.07;45.54;99611.03;5066540;28;20545;-76
2023/11/05 11:03:21;;;;;;;26.83;24.83;;;;;;;27.86;47.60;99609.31;5072140;28;20056;-75
2023/11/05 11:06:05;;;;;;;24.00;22.10;;;;;;;26.80;43.39;99609.66;5071487;28;20044;-74
2023/11/05 11:08:55;;;;;;;26.42;24.52;;;;;;;27.83;42.61;99592.84;5063903;28;20059;-76
2023/11/05 11:11:28;;;;;;;25.95;24.05;;;;;;;27.55;41.79;99587.38;5069558;28;20052;-75
2023/11/05 11:14:02;;;;;;;24.50;22.70;;;;;;;27.81;40.43;99585.03;5068299;28;20044;-76
2023/11/05 11:16:35;;;;;;;23.70;21.90;;;;;;;26.61;41.13;99572.91;5054475;28;20048;-75